createdAt,value
2018-10-03T00:02:02.591Z,2.20
2018-10-03T00:04:31.138Z,2.07
2018-10-03T00:06:59.527Z,3.40
2018-10-03T00:09:27.917Z,2.30
2018-10-03T00:11:56.290Z,2.07
2018-10-03T00:14:24.690Z,2.10
2018-10-03T00:16:53.064Z,2.40
2018-10-03T00:19:21.459Z,2.20
2018-10-03T00:21:49.836Z,3.00
2018-10-03T00:24:18.226Z,2.30
2018-10-03T00:26:46.614Z,2.83
2018-10-03T00:29:15.055Z,2.63
2018-10-03T00:31:43.425Z,2.90
2018-10-03T00:34:11.819Z,2.13
2018-10-03T00:36:40.246Z,3.00
2018-10-03T00:39:10.202Z,2.60
2018-10-03T00:41:38.970Z,3.37
2018-10-03T00:44:07.567Z,2.43
2018-10-03T00:46:35.945Z,2.50
2018-10-03T00:49:04.641Z,2.97
2018-10-03T00:51:33.019Z,3.40
2018-10-03T00:54:01.407Z,2.27
2018-10-03T00:56:30.108Z,2.27
2018-10-03T00:58:58.665Z,3.37
2018-10-03T01:01:27.136Z,2.13
2018-10-03T01:03:55.532Z,3.57
2018-10-03T01:06:23.947Z,2.90
2018-10-03T01:08:52.330Z,3.67
2018-10-03T01:11:20.721Z,2.50
2018-10-03T01:13:49.524Z,1.63
2018-10-03T01:16:18.248Z,2.00
2018-10-03T01:18:46.690Z,1.80
2018-10-03T01:21:15.070Z,2.63
2018-10-03T01:23:43.559Z,2.60
2018-10-03T01:26:11.954Z,2.93
2018-10-03T01:28:40.352Z,3.00
2018-10-03T01:31:08.734Z,2.10
2018-10-03T01:33:37.094Z,2.07
2018-10-03T01:36:05.478Z,1.87
2018-10-03T01:38:33.838Z,2.40
2018-10-03T01:41:02.229Z,2.30
2018-10-03T01:43:30.577Z,2.40
2018-10-03T01:45:58.959Z,2.53
2018-10-03T01:48:27.321Z,3.50
2018-10-03T01:50:55.712Z,2.83
2018-10-03T01:53:24.079Z,2.20
2018-10-03T01:55:52.470Z,2.97
2018-10-03T01:58:20.829Z,2.40
2018-10-03T02:00:49.210Z,4.53
2018-10-03T02:03:17.606Z,2.70
2018-10-03T02:05:46.038Z,2.70
2018-10-03T02:08:14.436Z,3.80
2018-10-03T02:10:43.101Z,2.07
2018-10-03T02:13:11.475Z,3.03
2018-10-03T02:15:39.905Z,2.73
2018-10-03T02:18:08.269Z,3.33
2018-10-03T02:20:36.658Z,2.53
2018-10-03T02:23:05.033Z,2.40
2018-10-03T02:25:33.422Z,3.43
2018-10-03T02:28:01.796Z,2.60
2018-10-03T02:30:30.216Z,2.63
2018-10-03T02:32:58.582Z,2.23
2018-10-03T02:35:26.984Z,2.60
2018-10-03T02:37:55.361Z,2.60
2018-10-03T02:40:23.753Z,3.60
2018-10-03T02:42:52.127Z,2.53
2018-10-03T02:45:21.442Z,1.77
2018-10-03T02:47:51.330Z,3.63
2018-10-03T02:50:19.732Z,2.90
2018-10-03T02:52:48.113Z,2.67
2018-10-03T02:55:16.505Z,2.80
2018-10-03T02:57:45.059Z,2.77
2018-10-03T03:00:13.471Z,3.00
2018-10-03T03:02:41.841Z,3.07
2018-10-03T03:05:10.210Z,2.50
2018-10-03T03:07:38.601Z,2.33
2018-10-03T03:10:06.979Z,2.00
2018-10-03T03:12:35.376Z,2.50
2018-10-03T03:15:03.742Z,3.03
2018-10-03T03:17:32.130Z,3.97
2018-10-03T03:20:00.524Z,3.87
2018-10-03T03:22:28.909Z,3.03
2018-10-03T03:24:57.294Z,1.90
2018-10-03T03:27:25.677Z,3.30
2018-10-03T03:29:54.071Z,1.93
2018-10-03T03:32:22.462Z,4.23
2018-10-03T03:34:50.826Z,3.30
2018-10-03T03:37:19.220Z,3.13
2018-10-03T03:39:47.623Z,2.83
2018-10-03T03:42:16.017Z,3.20
2018-10-03T03:44:44.386Z,2.53
2018-10-03T03:47:12.773Z,2.33
2018-10-03T03:49:41.174Z,2.40
2018-10-03T03:52:09.570Z,2.83
2018-10-03T03:54:37.980Z,1.93
2018-10-03T03:57:06.513Z,2.87
2018-10-03T03:59:34.885Z,3.60
2018-10-03T04:02:03.315Z,3.07
2018-10-03T04:04:31.695Z,2.50
2018-10-03T04:07:00.093Z,2.67
2018-10-03T04:09:28.464Z,2.37
2018-10-03T04:11:56.868Z,1.60
2018-10-03T04:14:25.239Z,1.87
2018-10-03T04:16:53.644Z,2.30
2018-10-03T04:19:22.162Z,2.27
2018-10-03T04:21:50.558Z,2.00
2018-10-03T04:24:18.921Z,1.47
2018-10-03T04:26:47.325Z,2.10
2018-10-03T04:29:15.715Z,2.00
2018-10-03T04:31:44.126Z,2.50
2018-10-03T04:34:12.490Z,4.90
2018-10-03T04:36:40.878Z,2.90
2018-10-03T04:39:09.252Z,2.93
2018-10-03T04:41:37.741Z,2.93
2018-10-03T04:44:06.106Z,2.20
2018-10-03T04:46:34.497Z,2.67
2018-10-03T04:49:02.973Z,2.90
2018-10-03T04:51:31.259Z,2.77
2018-10-03T04:53:59.847Z,2.73
2018-10-03T04:56:28.956Z,2.73
2018-10-03T04:58:57.359Z,2.50
2018-10-03T05:01:25.765Z,3.17
2018-10-03T05:03:54.146Z,3.73
2018-10-03T05:06:22.509Z,3.43
2018-10-03T05:08:50.898Z,3.60
2018-10-03T05:11:19.313Z,3.63
2018-10-03T05:13:47.669Z,3.07
2018-10-03T05:16:16.022Z,3.23
2018-10-03T05:18:44.409Z,3.37
2018-10-03T05:21:12.801Z,3.27
2018-10-03T05:23:41.180Z,1.87
2018-10-03T05:26:09.550Z,3.10
2018-10-03T05:28:37.945Z,2.10
2018-10-03T05:31:06.543Z,3.23
2018-10-03T05:33:35.454Z,3.10
2018-10-03T05:36:03.809Z,3.20
2018-10-03T05:38:32.190Z,3.80
2018-10-03T05:41:00.602Z,4.00
2018-10-03T05:43:28.983Z,2.50
2018-10-03T05:45:57.345Z,2.10
2018-10-03T05:48:25.835Z,2.87
2018-10-03T05:50:54.193Z,3.40
2018-10-03T05:53:22.583Z,2.50
2018-10-03T05:55:50.959Z,2.43
2018-10-03T05:58:19.355Z,2.83
2018-10-03T06:00:47.727Z,2.90
2018-10-03T06:03:16.119Z,2.00
2018-10-03T06:05:44.478Z,2.80
2018-10-03T06:08:12.858Z,3.70
2018-10-03T06:10:41.217Z,2.50
2018-10-03T06:13:09.597Z,5.10
2018-10-03T06:15:37.958Z,3.37
2018-10-03T06:18:06.497Z,3.60
2018-10-03T06:20:34.862Z,4.00
2018-10-03T06:23:03.241Z,3.30
2018-10-03T06:25:31.696Z,2.20
2018-10-03T06:28:00.160Z,2.30
2018-10-03T06:30:28.498Z,3.10
2018-10-03T06:32:56.884Z,2.27
2018-10-03T06:35:25.255Z,3.23
2018-10-03T06:37:53.654Z,2.87
2018-10-03T06:40:22.046Z,3.20
2018-10-03T06:42:50.420Z,2.30
2018-10-03T06:45:18.810Z,2.80
2018-10-03T06:47:47.186Z,3.27
2018-10-03T06:50:15.573Z,2.80
2018-10-03T06:52:43.972Z,2.43
2018-10-03T06:55:12.353Z,3.20
2018-10-03T06:57:40.717Z,4.27
2018-10-03T07:00:09.116Z,4.10
2018-10-03T07:02:37.494Z,2.90
2018-10-03T07:05:05.898Z,3.27
2018-10-03T07:07:34.261Z,3.30
2018-10-03T07:10:02.647Z,3.13
2018-10-03T07:12:31.021Z,3.70
2018-10-03T07:14:59.410Z,4.27
2018-10-03T07:17:27.769Z,3.87
2018-10-03T07:19:56.154Z,3.37
2018-10-03T07:22:24.532Z,3.57
2018-10-03T07:24:52.953Z,2.80
2018-10-03T07:27:21.335Z,2.10
2018-10-03T07:29:49.754Z,2.13
2018-10-03T07:32:18.125Z,1.80
2018-10-03T07:34:46.514Z,2.10
2018-10-03T07:37:14.884Z,2.10
2018-10-03T07:39:43.325Z,2.60
2018-10-03T07:42:12.778Z,2.10
2018-10-03T07:44:41.202Z,1.80
2018-10-03T07:47:09.570Z,3.13
2018-10-03T07:49:37.962Z,2.80
2018-10-03T07:52:06.466Z,2.30
2018-10-03T07:54:34.864Z,1.63
2018-10-03T07:57:03.238Z,1.70
2018-10-03T07:59:31.639Z,1.80
2018-10-03T08:02:00.053Z,1.90
2018-10-03T08:04:28.457Z,2.00
2018-10-03T08:06:56.830Z,2.10
2018-10-03T08:09:25.210Z,1.53
2018-10-03T08:11:53.578Z,2.07
2018-10-03T08:14:21.970Z,3.00
2018-10-03T08:16:50.344Z,2.90
2018-10-03T08:19:18.737Z,1.60
2018-10-03T08:21:47.110Z,2.70
2018-10-03T08:24:15.532Z,2.17
2018-10-03T08:26:44.038Z,2.50
2018-10-03T08:29:12.425Z,1.90
2018-10-03T08:31:40.817Z,2.47
2018-10-03T08:34:09.194Z,2.23
2018-10-03T08:36:37.600Z,1.93
2018-10-03T08:39:08.947Z,2.47
2018-10-03T08:41:37.347Z,2.50
2018-10-03T08:44:05.764Z,2.33
2018-10-03T08:46:34.157Z,2.37
2018-10-03T08:49:02.547Z,2.00
2018-10-03T08:51:30.989Z,1.77
2018-10-03T08:53:59.422Z,2.60
2018-10-03T08:56:27.832Z,1.70
2018-10-03T08:58:56.199Z,1.63
2018-10-03T09:01:24.597Z,2.27
2018-10-03T09:03:52.979Z,2.07
2018-10-03T09:06:21.386Z,1.57
2018-10-03T09:08:50.138Z,1.80
2018-10-03T09:11:18.529Z,1.83
2018-10-03T09:13:46.898Z,2.07
2018-10-03T09:16:15.289Z,1.83
2018-10-03T09:18:43.805Z,2.37
2018-10-03T09:21:12.228Z,2.00
2018-10-03T09:23:40.606Z,2.17
2018-10-03T09:26:09.014Z,1.73
2018-10-03T09:28:37.405Z,1.93
2018-10-03T09:31:05.805Z,2.00
2018-10-03T09:33:34.207Z,1.70
2018-10-03T09:36:02.667Z,1.90
2018-10-03T09:38:31.039Z,1.20
2018-10-03T09:40:59.426Z,1.50
2018-10-03T09:43:27.900Z,1.90
2018-10-03T09:45:56.289Z,1.80
2018-10-03T09:48:24.650Z,1.57
2018-10-03T09:50:53.046Z,1.20
2018-10-03T09:53:21.435Z,1.67
2018-10-03T09:55:49.823Z,1.37
2018-10-03T09:58:18.186Z,1.20
2018-10-03T10:00:52.110Z,0.90
2018-10-03T10:03:20.478Z,1.83
2018-10-03T10:05:49.638Z,1.40
2018-10-03T10:08:18.035Z,1.60
2018-10-03T10:10:46.415Z,1.10
2018-10-03T10:13:14.778Z,1.50
2018-10-03T10:15:43.179Z,1.40
2018-10-03T10:18:11.591Z,3.03
2018-10-03T10:20:40.057Z,1.30
2018-10-03T10:23:08.543Z,0.77
2018-10-03T10:25:36.905Z,1.40
2018-10-03T10:28:05.309Z,0.80
2018-10-03T10:30:33.723Z,0.70
2018-10-03T10:33:02.142Z,1.53
2018-10-03T10:35:30.518Z,1.27
2018-10-03T10:37:58.920Z,0.83
2018-10-03T10:40:27.561Z,1.40
2018-10-03T10:42:55.843Z,1.00
2018-10-03T10:45:24.247Z,0.93
2018-10-03T10:47:52.643Z,0.70
2018-10-03T10:50:21.092Z,0.90
2018-10-03T10:52:51.094Z,1.53
2018-10-03T10:55:19.626Z,1.60
2018-10-03T10:57:48.018Z,1.23
2018-10-03T11:00:16.393Z,1.27
2018-10-03T11:02:44.789Z,0.80
2018-10-03T11:05:13.461Z,1.00
2018-10-03T11:07:41.852Z,1.27
2018-10-03T11:10:10.221Z,1.40
2018-10-03T11:12:38.618Z,1.67
2018-10-03T11:15:07.034Z,1.40
2018-10-03T11:17:35.433Z,1.20
2018-10-03T11:20:03.813Z,1.43
2018-10-03T11:22:32.197Z,1.10
2018-10-03T11:25:00.588Z,1.57
2018-10-03T11:27:29.002Z,1.00
2018-10-03T11:29:57.435Z,0.80
2018-10-03T11:32:25.823Z,1.20
2018-10-03T11:34:54.194Z,1.00
2018-10-03T11:37:22.581Z,0.80
2018-10-03T11:39:50.960Z,1.47
2018-10-03T11:42:19.353Z,0.97
2018-10-03T11:44:47.724Z,1.23
2018-10-03T11:47:16.157Z,0.77
2018-10-03T11:49:44.498Z,0.90
2018-10-03T11:52:12.914Z,1.10
2018-10-03T11:54:41.279Z,0.70
2018-10-03T11:57:09.722Z,1.10
2018-10-03T11:59:38.141Z,1.50
2018-10-03T12:02:06.483Z,0.70
2018-10-03T12:04:34.906Z,1.10
2018-10-03T12:07:03.340Z,1.03
2018-10-03T12:09:31.713Z,0.80
2018-10-03T12:12:00.082Z,0.97
2018-10-03T12:14:28.473Z,0.77
2018-10-03T12:16:56.829Z,0.60
2018-10-03T12:19:25.252Z,1.13
2018-10-03T12:21:53.622Z,0.97
2018-10-03T12:24:22.005Z,1.10
2018-10-03T12:26:50.361Z,1.00
2018-10-03T12:29:18.829Z,1.30
2018-10-03T12:31:47.210Z,0.97
2018-10-03T12:34:15.598Z,1.30
2018-10-03T12:36:43.972Z,1.00
2018-10-03T12:39:12.394Z,1.30
2018-10-03T12:41:41.066Z,1.17
2018-10-03T12:44:13.350Z,1.37
2018-10-03T12:46:41.750Z,1.37
2018-10-03T12:49:10.138Z,1.17
2018-10-03T12:51:38.515Z,1.30
2018-10-03T12:54:06.921Z,0.83
2018-10-03T12:56:35.354Z,0.83
2018-10-03T12:59:03.745Z,1.33
2018-10-03T13:01:32.124Z,0.93
2018-10-03T13:04:00.519Z,0.87
2018-10-03T13:06:28.903Z,1.70
2018-10-03T13:08:57.401Z,1.60
2018-10-03T13:11:25.779Z,1.10
2018-10-03T13:13:54.196Z,1.23
2018-10-03T13:16:22.575Z,1.20
2018-10-03T13:18:51.057Z,1.30
2018-10-03T13:21:19.433Z,1.07
2018-10-03T13:23:47.822Z,1.40
2018-10-03T13:26:16.216Z,1.33
2018-10-03T13:28:44.621Z,1.63
2018-10-03T13:31:12.990Z,1.00
2018-10-03T13:33:41.378Z,1.27
2018-10-03T13:36:09.751Z,1.20
2018-10-03T13:38:38.162Z,1.10
2018-10-03T13:41:06.535Z,1.27
2018-10-03T13:43:34.939Z,1.30
2018-10-03T13:46:03.325Z,1.37
2018-10-03T13:48:31.814Z,1.90
2018-10-03T13:51:00.218Z,1.30
2018-10-03T13:53:28.607Z,0.90
2018-10-03T13:55:57.055Z,0.90
2018-10-03T13:58:25.445Z,0.90
2018-10-03T14:00:53.961Z,1.63
2018-10-03T14:03:22.337Z,1.20
2018-10-03T14:05:50.739Z,1.07
2018-10-03T14:08:19.111Z,0.90
2018-10-03T14:10:47.515Z,1.07
2018-10-03T14:13:15.899Z,1.20
2018-10-03T14:15:44.305Z,1.40
2018-10-03T14:18:12.778Z,1.33
2018-10-03T14:20:41.508Z,1.20
2018-10-03T14:23:10.020Z,1.83
2018-10-03T14:25:38.413Z,1.23
2018-10-03T14:28:06.794Z,1.37
2018-10-03T14:30:35.225Z,1.13
2018-10-03T14:33:03.604Z,0.90
2018-10-03T14:35:32.025Z,1.40
2018-10-03T14:38:00.397Z,1.77
2018-10-03T14:40:28.831Z,1.13
2018-10-03T14:42:57.202Z,1.70
2018-10-03T14:45:25.607Z,1.67
2018-10-03T14:47:54.161Z,1.50
2018-10-03T14:50:22.553Z,1.60
2018-10-03T14:52:51.285Z,1.67
2018-10-03T14:55:19.946Z,1.13
2018-10-03T14:57:48.318Z,1.37
2018-10-03T15:00:16.712Z,1.60
2018-10-03T15:02:45.083Z,1.33
2018-10-03T15:05:13.483Z,2.00
2018-10-03T15:07:41.857Z,1.67
2018-10-03T15:10:10.258Z,1.50
2018-10-03T15:12:38.636Z,1.33
2018-10-03T15:15:07.717Z,1.37
2018-10-03T15:17:36.100Z,1.90
2018-10-03T15:20:04.599Z,2.20
2018-10-03T15:22:32.984Z,1.07
2018-10-03T15:25:01.389Z,1.83
2018-10-03T15:27:29.769Z,2.00
2018-10-03T15:29:58.356Z,1.50
2018-10-03T15:32:26.641Z,1.80
2018-10-03T15:34:55.047Z,1.20
2018-10-03T15:37:23.410Z,1.50
2018-10-03T15:39:52.041Z,1.60
2018-10-03T15:42:20.483Z,3.30
2018-10-03T15:44:48.829Z,3.33
2018-10-03T15:47:17.311Z,3.23
2018-10-03T15:49:45.698Z,4.10
2018-10-03T15:52:14.093Z,2.60
2018-10-03T15:54:42.509Z,2.10
2018-10-03T15:57:10.875Z,2.67
2018-10-03T15:59:39.276Z,1.40
2018-10-03T16:02:07.666Z,3.20
2018-10-03T16:04:36.033Z,1.70
2018-10-03T16:07:04.435Z,1.90
2018-10-03T16:09:32.854Z,1.53
2018-10-03T16:12:01.222Z,2.07
2018-10-03T16:14:29.594Z,1.87
2018-10-03T16:16:58.102Z,1.97
2018-10-03T16:19:26.478Z,2.77
2018-10-03T16:21:54.867Z,1.83
2018-10-03T16:24:23.241Z,1.70
2018-10-03T16:26:51.627Z,1.37
2018-10-03T16:29:20.023Z,2.93
2018-10-03T16:31:48.423Z,3.40
2018-10-03T16:34:16.802Z,3.77
2018-10-03T16:36:45.198Z,5.00
2018-10-03T16:39:13.652Z,5.73
2018-10-03T16:41:41.994Z,3.20
2018-10-03T16:44:10.471Z,4.27
2018-10-03T16:46:38.897Z,3.10
2018-10-03T16:49:07.307Z,4.03
2018-10-03T16:51:35.706Z,3.50
2018-10-03T16:54:04.082Z,4.17
2018-10-03T16:56:32.478Z,3.33
2018-10-03T16:59:00.845Z,3.53
2018-10-03T17:01:29.241Z,3.20
2018-10-03T17:03:57.618Z,4.40
2018-10-03T17:06:26.018Z,2.73
2018-10-03T17:08:54.399Z,3.17
2018-10-03T17:11:22.810Z,2.60
2018-10-03T17:14:05.838Z,3.07
2018-10-03T17:16:34.241Z,2.23
2018-10-03T17:19:02.618Z,2.07
2018-10-03T17:21:31.009Z,1.70
2018-10-03T17:23:59.382Z,1.90
2018-10-03T17:26:27.779Z,1.73
2018-10-03T17:28:56.165Z,1.27
2018-10-03T17:31:24.556Z,1.70
2018-10-03T17:33:52.937Z,1.57
2018-10-03T17:36:21.363Z,1.30
2018-10-03T17:38:49.730Z,1.13
2018-10-03T17:41:18.130Z,1.50
2018-10-03T17:43:47.257Z,1.27
2018-10-03T17:46:15.646Z,2.53
2018-10-03T17:48:44.015Z,1.87
2018-10-03T17:51:12.409Z,2.47
2018-10-03T17:53:40.799Z,2.00
2018-10-03T17:56:09.171Z,2.03
2018-10-03T17:58:37.585Z,1.50
2018-10-03T18:01:06.238Z,1.70
2018-10-03T18:03:34.627Z,1.60
2018-10-03T18:06:03.002Z,1.77
2018-10-03T18:08:31.438Z,1.90
2018-10-03T18:10:59.813Z,1.73
2018-10-03T18:13:28.273Z,1.23
2018-10-03T18:15:56.641Z,2.13
2018-10-03T18:18:25.070Z,1.67
2018-10-03T18:20:53.437Z,1.57
2018-10-03T18:23:21.827Z,1.93
2018-10-03T18:25:50.203Z,1.60
2018-10-03T18:28:18.610Z,2.10
2018-10-03T18:30:46.966Z,1.63
2018-10-03T18:33:15.366Z,1.60
2018-10-03T18:35:43.739Z,1.97
2018-10-03T18:38:12.131Z,2.00
2018-10-03T18:40:40.498Z,1.87
2018-10-03T18:43:08.885Z,3.33
2018-10-03T18:45:37.655Z,1.50
2018-10-03T18:48:06.047Z,1.60
2018-10-03T18:50:34.414Z,1.97
2018-10-03T18:53:02.811Z,1.50
2018-10-03T18:55:31.173Z,1.77
2018-10-03T18:57:59.561Z,1.60
2018-10-03T19:00:28.334Z,1.20
2018-10-03T19:02:56.911Z,2.03
2018-10-03T19:05:25.273Z,1.63
2018-10-03T19:07:53.678Z,2.63
2018-10-03T19:10:22.073Z,3.67
2018-10-03T19:12:50.586Z,1.40
2018-10-03T19:15:19.013Z,1.00
2018-10-03T19:17:47.398Z,1.27
2018-10-03T19:20:15.962Z,1.50
2018-10-03T19:22:44.310Z,1.30
2018-10-03T19:25:12.686Z,1.47
2018-10-03T19:27:41.075Z,1.10
2018-10-03T19:30:09.465Z,1.80
2018-10-03T19:32:37.855Z,1.43
2018-10-03T19:35:06.229Z,1.40
2018-10-03T19:37:34.778Z,1.20
2018-10-03T19:40:03.158Z,1.67
2018-10-03T19:42:31.597Z,1.63
2018-10-03T19:44:59.978Z,1.30
2018-10-03T19:47:28.354Z,1.80
2018-10-03T19:49:56.773Z,1.70
2018-10-03T19:52:25.130Z,1.13
2018-10-03T19:54:53.511Z,2.03
2018-10-03T19:57:21.982Z,1.60
2018-10-03T19:59:50.367Z,1.83
2018-10-03T20:02:18.845Z,1.27
2018-10-03T20:04:47.222Z,0.93
2018-10-03T20:07:15.596Z,1.23
2018-10-03T20:09:44.006Z,1.93
2018-10-03T20:12:12.395Z,1.20
2018-10-03T20:14:40.774Z,1.33
2018-10-03T20:17:09.130Z,1.43
2018-10-03T20:19:37.519Z,0.97
2018-10-03T20:22:10.801Z,1.40
2018-10-03T20:24:39.605Z,1.30
2018-10-03T20:27:07.961Z,1.00
2018-10-03T20:29:36.373Z,1.77
2018-10-03T20:32:04.845Z,1.90
2018-10-03T20:34:33.274Z,3.10
2018-10-03T20:37:01.898Z,2.70
2018-10-03T20:39:30.290Z,2.20
2018-10-03T20:41:58.679Z,2.07
2018-10-03T20:44:27.074Z,1.23
2018-10-03T20:46:55.541Z,1.80
2018-10-03T20:49:23.934Z,1.17
2018-10-03T20:51:52.301Z,1.30
2018-10-03T20:54:20.811Z,1.43
2018-10-03T20:56:49.142Z,1.03
2018-10-03T20:59:17.535Z,1.60
2018-10-03T21:01:45.893Z,1.20
2018-10-03T21:04:14.302Z,1.13
2018-10-03T21:06:42.666Z,1.53
2018-10-03T21:09:11.569Z,1.60
2018-10-03T21:11:40.036Z,1.83
2018-10-03T21:14:08.434Z,1.87
2018-10-03T21:16:36.814Z,2.20
2018-10-03T21:19:05.232Z,2.20
2018-10-03T21:21:33.607Z,1.77
2018-10-03T21:24:01.998Z,1.50
2018-10-03T21:26:30.358Z,1.60
2018-10-03T21:28:58.783Z,1.13
2018-10-03T21:31:27.134Z,1.07
2018-10-03T21:33:55.486Z,1.80
2018-10-03T21:36:23.873Z,1.00
2018-10-03T21:38:52.229Z,1.70
2018-10-03T21:41:20.610Z,1.80
2018-10-03T21:43:48.993Z,1.30
2018-10-03T21:46:17.381Z,1.30
2018-10-03T21:48:45.742Z,1.53
2018-10-03T21:51:14.168Z,2.37
2018-10-03T21:53:42.506Z,1.70
2018-10-03T21:56:10.895Z,1.27
2018-10-03T21:58:39.258Z,2.37
2018-10-03T22:01:07.766Z,1.20
2018-10-03T22:03:36.139Z,2.07
2018-10-03T22:06:04.553Z,1.90
2018-10-03T22:08:32.918Z,1.47
2018-10-03T22:11:01.302Z,1.20
2018-10-03T22:13:29.757Z,1.30
2018-10-03T22:15:58.144Z,2.07
2018-10-03T22:18:26.502Z,1.90
2018-10-03T22:20:54.881Z,2.00
2018-10-03T22:23:23.246Z,1.40
2018-10-03T22:25:51.617Z,2.00
2018-10-03T22:28:19.994Z,1.37
2018-10-03T22:30:48.377Z,2.13
2018-10-03T22:33:16.748Z,2.00
2018-10-03T22:35:45.140Z,1.50
2018-10-03T22:38:13.507Z,1.57
2018-10-03T22:40:41.894Z,1.60
2018-10-03T22:43:10.271Z,1.40
2018-10-03T22:45:38.668Z,2.30
2018-10-03T22:48:07.055Z,2.00
2018-10-03T22:50:35.441Z,1.30
2018-10-03T22:53:03.810Z,2.60
2018-10-03T22:55:32.211Z,1.97
2018-10-03T22:58:00.569Z,1.33
2018-10-03T23:00:28.950Z,1.90
2018-10-03T23:02:57.310Z,2.50
2018-10-03T23:05:25.693Z,2.00
2018-10-03T23:07:54.038Z,1.40
2018-10-03T23:10:22.573Z,1.50
2018-10-03T23:12:51.133Z,1.73
2018-10-03T23:15:19.538Z,2.43
2018-10-03T23:17:47.901Z,1.67
2018-10-03T23:20:16.270Z,1.40
2018-10-03T23:22:44.666Z,2.67
2018-10-03T23:25:13.026Z,1.87
2018-10-03T23:27:41.438Z,2.20
2018-10-03T23:30:09.817Z,2.27
2018-10-03T23:32:38.206Z,1.40
2018-10-03T23:35:06.565Z,2.60
2018-10-03T23:37:34.938Z,2.73
2018-10-03T23:40:03.411Z,2.23
2018-10-03T23:42:31.789Z,1.60
2018-10-03T23:45:00.167Z,1.63
2018-10-03T23:47:28.559Z,2.07
2018-10-03T23:49:57.032Z,2.50
2018-10-03T23:52:25.417Z,2.17
2018-10-03T23:54:53.791Z,1.70
2018-10-03T23:57:22.180Z,2.00
2018-10-03T23:59:50.553Z,1.80
